createdAt,value
2022-08-07T00:00:41.160Z,12.3
2022-08-07T00:01:50.308Z,12.3
2022-08-07T00:02:59.481Z,12.2
2022-08-07T00:04:08.654Z,12.1
2022-08-07T00:05:17.839Z,12.1
2022-08-07T00:06:26.998Z,12
2022-08-07T00:07:36.167Z,12
2022-08-07T00:08:45.355Z,12
2022-08-07T00:09:54.514Z,12
2022-08-07T00:11:03.713Z,12
2022-08-07T00:12:12.850Z,12
2022-08-07T00:13:22.029Z,12
2022-08-07T00:14:30.240Z,12
2022-08-07T00:15:39.388Z,12
2022-08-07T00:16:47.590Z,12
2022-08-07T00:17:55.784Z,12.1
2022-08-07T00:19:04.947Z,12.1
2022-08-07T00:21:22.319Z,12.1
2022-08-07T00:22:30.505Z,12.1
2022-08-07T00:23:38.702Z,12
2022-08-07T00:24:47.887Z,12.1
2022-08-07T00:25:57.058Z,12
2022-08-07T00:27:06.221Z,12
2022-08-07T00:28:15.392Z,12
2022-08-07T00:29:24.558Z,12
2022-08-07T00:30:33.738Z,11.9
2022-08-07T00:31:42.931Z,11.9
2022-08-07T00:32:52.084Z,11.8
2022-08-07T00:34:01.248Z,11.8
2022-08-07T00:35:10.433Z,11.8
2022-08-07T00:36:19.592Z,11.8
2022-08-07T00:37:28.767Z,11.8
2022-08-07T00:38:36.983Z,11.7
2022-08-07T00:39:46.135Z,11.7
2022-08-07T00:40:55.310Z,11.8
2022-08-07T00:42:04.492Z,11.8
2022-08-07T00:43:13.651Z,11.8
2022-08-07T00:44:22.833Z,11.7
2022-08-07T00:45:31.995Z,11.7
2022-08-07T00:46:41.180Z,11.7
2022-08-07T00:47:50.352Z,11.7
2022-08-07T00:48:58.539Z,11.7
2022-08-07T00:50:07.716Z,11.7
2022-08-07T00:51:16.873Z,11.7
2022-08-07T00:52:26.067Z,11.7
2022-08-07T00:53:35.224Z,11.7
2022-08-07T00:54:44.422Z,11.7
2022-08-07T00:55:53.574Z,11.7
2022-08-07T00:57:02.746Z,11.6
2022-08-07T00:58:11.916Z,11.5
2022-08-07T00:59:21.099Z,11.5
2022-08-07T01:00:30.269Z,11.5
2022-08-07T01:01:39.420Z,11.4
2022-08-07T01:02:48.650Z,11.4
2022-08-07T01:03:56.795Z,11.4
2022-08-07T01:05:05.964Z,11.4
2022-08-07T01:06:15.162Z,11.3
2022-08-07T01:07:24.323Z,11.3
2022-08-07T01:08:32.522Z,11.3
2022-08-07T01:09:40.699Z,11.3
2022-08-07T01:10:49.886Z,11.2
2022-08-07T01:11:59.040Z,11.3
2022-08-07T01:13:08.239Z,11.3
2022-08-07T01:14:17.375Z,11.3
2022-08-07T01:15:26.564Z,11.3
2022-08-07T01:16:35.723Z,11.3
2022-08-07T01:17:44.891Z,11.4
2022-08-07T01:18:54.079Z,11.4
2022-08-07T01:20:03.248Z,11.3
2022-08-07T01:21:12.423Z,11.3
2022-08-07T01:22:21.589Z,11.4
2022-08-07T01:23:30.791Z,11.4
2022-08-07T01:24:38.980Z,11.3
2022-08-07T01:25:47.160Z,11.3
2022-08-07T01:26:56.316Z,11.3
2022-08-07T01:28:05.518Z,11.3
2022-08-07T01:29:14.688Z,11.3
2022-08-07T01:30:23.844Z,11.3
2022-08-07T01:31:33.024Z,11.3
2022-08-07T01:32:42.195Z,11.3
2022-08-07T01:33:51.371Z,11.3
2022-08-07T01:35:00.545Z,11.3
2022-08-07T01:36:09.732Z,11.3
2022-08-07T01:37:18.892Z,11.3
2022-08-07T01:38:28.055Z,11.2
2022-08-07T01:39:37.216Z,11.2
2022-08-07T01:40:45.407Z,11.2
2022-08-07T01:41:54.591Z,11.2
2022-08-07T01:43:03.800Z,11.2
2022-08-07T01:44:12.946Z,11.1
2022-08-07T01:45:22.095Z,11.1
2022-08-07T01:46:31.268Z,11.1
2022-08-07T01:47:40.443Z,11.1
2022-08-07T01:48:49.612Z,11.1
2022-08-07T01:49:58.792Z,11.1
2022-08-07T01:51:07.961Z,11.1
2022-08-07T01:52:17.133Z,11
2022-08-07T01:53:26.307Z,11
2022-08-07T01:54:35.476Z,11
2022-08-07T01:55:43.665Z,11
2022-08-07T01:56:52.847Z,10.9
2022-08-07T01:58:02.013Z,10.9
2022-08-07T01:59:11.197Z,10.8
2022-08-07T02:00:19.395Z,10.9
2022-08-07T02:01:27.568Z,10.9
2022-08-07T02:02:36.742Z,10.9
2022-08-07T02:03:44.939Z,10.9
2022-08-07T02:04:53.128Z,10.9
2022-08-07T02:06:02.292Z,10.9
2022-08-07T02:07:11.493Z,10.9
2022-08-07T02:08:20.639Z,10.9
2022-08-07T02:09:29.807Z,10.9
2022-08-07T02:10:39.010Z,10.8
2022-08-07T02:11:48.162Z,10.8
2022-08-07T02:12:57.329Z,10.9
2022-08-07T02:14:06.502Z,10.9
2022-08-07T02:15:15.673Z,10.8
2022-08-07T02:16:24.849Z,10.9
2022-08-07T02:17:34.018Z,10.9
2022-08-07T02:18:43.196Z,10.9
2022-08-07T02:19:51.383Z,10.8
2022-08-07T02:21:00.569Z,10.8
2022-08-07T02:22:09.727Z,10.7
2022-08-07T02:23:18.918Z,10.7
2022-08-07T02:24:28.069Z,10.7
2022-08-07T02:25:37.250Z,10.7
2022-08-07T02:26:46.429Z,10.7
2022-08-07T02:27:55.606Z,10.7
2022-08-07T02:29:04.784Z,10.7
2022-08-07T02:30:13.933Z,10.6
2022-08-07T02:31:23.133Z,10.7
2022-08-07T02:32:32.303Z,10.7
2022-08-07T02:33:41.447Z,10.7
2022-08-07T02:34:49.664Z,10.7
2022-08-07T02:35:57.844Z,10.6
2022-08-07T02:37:07.022Z,10.7
2022-08-07T02:38:15.208Z,10.6
2022-08-07T02:39:24.389Z,10.7
2022-08-07T02:40:32.572Z,10.6
2022-08-07T02:41:41.745Z,10.6
2022-08-07T02:42:50.911Z,10.6
2022-08-07T02:44:00.122Z,10.6
2022-08-07T02:45:09.257Z,10.6
2022-08-07T02:46:18.427Z,10.6
2022-08-07T02:47:27.616Z,10.6
2022-08-07T02:48:36.793Z,10.5
2022-08-07T02:49:45.950Z,10.4
2022-08-07T02:50:55.131Z,10.5
2022-08-07T02:52:04.314Z,10.5
2022-08-07T02:53:13.483Z,10.5
2022-08-07T02:54:22.638Z,10.5
2022-08-07T02:55:30.834Z,10.5
2022-08-07T02:56:40.001Z,10.5
2022-08-07T02:57:49.177Z,10.5
2022-08-07T02:58:58.361Z,10.4
2022-08-07T03:00:07.524Z,10.4
2022-08-07T03:01:16.693Z,10.4
2022-08-07T03:02:25.882Z,10.4
2022-08-07T03:03:35.035Z,10.4
2022-08-07T03:04:44.235Z,10.4
2022-08-07T03:05:53.391Z,10.4
2022-08-07T03:07:02.556Z,10.4
2022-08-07T03:08:11.721Z,10.4
2022-08-07T03:09:20.905Z,10.4
2022-08-07T03:10:29.126Z,10.4
2022-08-07T03:11:38.265Z,10.4
2022-08-07T03:12:47.452Z,10.4
2022-08-07T03:13:56.605Z,10.4
2022-08-07T03:15:05.781Z,10.3
2022-08-07T03:16:14.975Z,10.3
2022-08-07T03:17:24.131Z,10.3
2022-08-07T03:18:33.297Z,10.3
2022-08-07T03:19:42.475Z,10.3
2022-08-07T03:20:51.644Z,10.3
2022-08-07T03:22:00.811Z,10.3
2022-08-07T03:23:10.009Z,10.3
2022-08-07T03:24:19.164Z,10.2
2022-08-07T03:25:27.374Z,10.2
2022-08-07T03:26:36.529Z,10.3
2022-08-07T03:27:45.702Z,10.3
2022-08-07T03:28:54.887Z,10.3
2022-08-07T03:30:04.052Z,10.3
2022-08-07T03:31:13.207Z,10.3
2022-08-07T03:32:22.392Z,10.3
2022-08-07T03:33:31.568Z,10.3
2022-08-07T03:34:40.737Z,10.3
2022-08-07T03:35:49.908Z,10.3
2022-08-07T03:36:59.091Z,10.3
2022-08-07T03:38:08.261Z,10.3
2022-08-07T03:39:17.427Z,10.3
2022-08-07T03:40:25.622Z,10.3
2022-08-07T03:41:34.782Z,10.3
2022-08-07T03:42:43.962Z,10.3
2022-08-07T03:43:53.128Z,10.3
2022-08-07T03:45:02.310Z,10.3
2022-08-07T03:46:11.480Z,10.2
2022-08-07T03:47:20.650Z,10.3
2022-08-07T03:48:29.821Z,10.3
2022-08-07T03:49:38.993Z,10.3
2022-08-07T03:50:48.165Z,10.2
2022-08-07T03:51:57.347Z,10.3
2022-08-07T03:53:06.512Z,10.2
2022-08-07T03:54:15.694Z,10.2
2022-08-07T03:55:23.881Z,10.2
2022-08-07T03:56:33.044Z,10.3
2022-08-07T03:57:42.218Z,10.2
2022-08-07T03:58:51.400Z,10.2
2022-08-07T04:00:00.578Z,10.3
2022-08-07T04:01:09.747Z,10.3
2022-08-07T04:02:18.938Z,10.3
2022-08-07T04:03:28.110Z,10.3
2022-08-07T04:04:37.280Z,10.3
2022-08-07T04:05:46.435Z,10.4
2022-08-07T04:06:55.634Z,10.3
2022-08-07T04:08:04.775Z,10.3
2022-08-07T04:09:13.955Z,10.4
2022-08-07T04:10:22.161Z,10.4
2022-08-07T04:11:31.325Z,10.4
2022-08-07T04:12:40.505Z,10.3
2022-08-07T04:13:49.659Z,10.3
2022-08-07T04:14:58.849Z,10.3
2022-08-07T04:16:08.003Z,10.3
2022-08-07T04:17:17.184Z,10.3
2022-08-07T04:18:26.356Z,10.3
2022-08-07T04:19:35.520Z,10.4
2022-08-07T04:20:44.699Z,10.3
2022-08-07T04:21:53.879Z,10.4
2022-08-07T04:23:03.047Z,10.4
2022-08-07T04:24:12.204Z,10.4
2022-08-07T04:25:20.402Z,10.5
2022-08-07T04:26:29.581Z,10.5
2022-08-07T04:27:38.750Z,10.6
2022-08-07T04:28:47.916Z,10.6
2022-08-07T04:29:57.101Z,10.6
2022-08-07T04:31:06.267Z,10.6
2022-08-07T04:32:15.437Z,10.6
2022-08-07T04:33:24.630Z,10.6
2022-08-07T04:34:33.780Z,10.6
2022-08-07T04:35:42.976Z,10.5
2022-08-07T04:36:52.182Z,10.6
2022-08-07T04:38:01.302Z,10.6
2022-08-07T04:39:10.479Z,10.6
2022-08-07T04:40:18.670Z,10.6
2022-08-07T04:41:27.865Z,10.6
2022-08-07T04:42:37.016Z,10.7
2022-08-07T04:43:46.192Z,10.8
2022-08-07T04:44:55.365Z,10.9
2022-08-07T04:46:04.536Z,10.9
2022-08-07T04:47:13.728Z,10.9
2022-08-07T04:48:22.883Z,11
2022-08-07T04:49:32.044Z,11
2022-08-07T04:50:41.228Z,11.1
2022-08-07T04:51:50.391Z,11.1
2022-08-07T04:52:59.572Z,11.2
2022-08-07T04:54:08.741Z,11.2
2022-08-07T04:55:16.927Z,11.4
2022-08-07T04:56:26.108Z,11.4
2022-08-07T04:57:35.279Z,11.4
2022-08-07T04:58:44.466Z,11.4
2022-08-07T04:59:53.632Z,11.4
2022-08-07T05:01:02.806Z,11.3
2022-08-07T05:02:11.968Z,11.3
2022-08-07T05:03:21.157Z,11.4
2022-08-07T05:04:30.339Z,11.5
2022-08-07T05:05:39.486Z,11.7
2022-08-07T05:06:48.670Z,12
2022-08-07T05:07:57.854Z,12.3
2022-08-07T05:09:07.015Z,12.3
2022-08-07T05:10:15.199Z,12.3
2022-08-07T05:11:24.374Z,12.2
2022-08-07T05:12:33.546Z,12.1
2022-08-07T05:13:42.720Z,12.1
2022-08-07T05:14:51.883Z,12.4
2022-08-07T05:16:01.054Z,13.1
2022-08-07T05:17:10.249Z,13.6
2022-08-07T05:18:19.409Z,13.8
2022-08-07T05:19:28.570Z,13.8
2022-08-07T05:20:37.769Z,13.8
2022-08-07T05:21:46.925Z,13.8
2022-08-07T05:22:56.105Z,13.8
2022-08-07T05:24:05.311Z,13.8
2022-08-07T05:25:13.450Z,13.9
2022-08-07T05:26:22.623Z,14.1
2022-08-07T05:27:30.820Z,14.3
2022-08-07T05:28:39.020Z,14.3
2022-08-07T05:29:48.193Z,14.4
2022-08-07T05:30:56.382Z,14.5
2022-08-07T05:32:04.580Z,14.5
2022-08-07T05:33:13.744Z,14.4
2022-08-07T05:34:22.961Z,14.5
2022-08-07T05:35:32.080Z,14.6
2022-08-07T05:36:41.264Z,14.7
2022-08-07T05:37:50.435Z,14.7
2022-08-07T05:38:59.599Z,14.7
2022-08-07T05:40:08.765Z,14.7
2022-08-07T05:41:17.943Z,14.7
2022-08-07T05:42:27.111Z,14.7
2022-08-07T05:43:36.279Z,14.7
2022-08-07T05:44:45.476Z,14.8
2022-08-07T05:45:54.641Z,14.9
2022-08-07T05:47:02.832Z,15
2022-08-07T05:48:12.021Z,14.8
2022-08-07T05:49:21.173Z,14.9
2022-08-07T05:50:30.334Z,15.2
2022-08-07T05:51:39.527Z,15
2022-08-07T05:52:48.700Z,15.3
2022-08-07T05:53:57.863Z,15.3
2022-08-07T05:55:07.046Z,15.3
2022-08-07T05:56:16.208Z,15.3
2022-08-07T05:57:25.382Z,15.3
2022-08-07T05:58:34.549Z,15.2
2022-08-07T05:59:43.744Z,15.2
2022-08-07T06:00:52.905Z,15.6
2022-08-07T06:02:01.090Z,15.5
2022-08-07T06:03:10.267Z,15.6
2022-08-07T06:04:19.449Z,15.7
2022-08-07T06:05:28.611Z,15.8
2022-08-07T06:06:37.783Z,16
2022-08-07T06:07:46.939Z,15.8
2022-08-07T06:08:56.139Z,16.1
2022-08-07T06:10:05.317Z,16
2022-08-07T06:11:14.467Z,15.9
2022-08-07T06:12:23.643Z,16
2022-08-07T06:13:32.809Z,16
2022-08-07T06:14:41.992Z,16
2022-08-07T06:15:51.156Z,16.1
2022-08-07T06:16:59.362Z,16.3
2022-08-07T06:18:08.543Z,16.2
2022-08-07T06:19:17.693Z,16.4
2022-08-07T06:20:26.882Z,16.4
2022-08-07T06:21:36.038Z,16.2
2022-08-07T06:22:45.196Z,16.3
2022-08-07T06:23:54.376Z,16.4
2022-08-07T06:25:03.548Z,16.5
2022-08-07T06:26:12.719Z,16.9
2022-08-07T06:27:21.897Z,17
2022-08-07T06:28:31.065Z,16.8
2022-08-07T06:29:40.266Z,16.8
2022-08-07T06:30:49.410Z,17.1
2022-08-07T06:31:57.612Z,17.4
2022-08-07T06:33:06.760Z,17.6
2022-08-07T06:34:15.940Z,17.7
2022-08-07T06:35:25.110Z,17.7
2022-08-07T06:36:34.289Z,18.1
2022-08-07T06:37:43.457Z,17.7
2022-08-07T06:38:52.646Z,17.6
2022-08-07T06:40:01.812Z,18.1
2022-08-07T06:41:10.997Z,18.2
2022-08-07T06:42:20.144Z,18.8
2022-08-07T06:43:29.311Z,19.3
2022-08-07T06:44:38.500Z,18.9
2022-08-07T06:45:47.678Z,18.6
2022-08-07T06:46:55.848Z,18.4
2022-08-07T06:48:05.042Z,18.7
2022-08-07T06:49:14.227Z,19.2
2022-08-07T06:50:23.405Z,19.3
2022-08-07T06:51:32.546Z,19.2
2022-08-07T06:52:41.712Z,19.4
2022-08-07T06:53:50.898Z,19.7
2022-08-07T06:55:00.082Z,20
2022-08-07T06:56:09.252Z,20.3
2022-08-07T06:57:18.413Z,20.6
2022-08-07T06:58:27.593Z,20.5
2022-08-07T06:59:36.753Z,20.2
2022-08-07T07:00:45.950Z,19.8
2022-08-07T07:01:54.129Z,19.5
2022-08-07T07:03:03.284Z,19.4
2022-08-07T07:04:12.461Z,19.7
2022-08-07T07:05:21.634Z,19.9
2022-08-07T07:06:30.824Z,19.8
2022-08-07T07:07:39.979Z,20.2
2022-08-07T07:08:49.156Z,20.1
2022-08-07T07:09:58.320Z,20.4
2022-08-07T07:11:07.498Z,20.1
2022-08-07T07:12:16.672Z,19.8
2022-08-07T07:13:25.850Z,20.1
2022-08-07T07:14:35.033Z,20.7
2022-08-07T07:15:44.192Z,20.5
2022-08-07T07:16:52.386Z,20.7
2022-08-07T07:18:01.560Z,21
2022-08-07T07:19:10.716Z,21
2022-08-07T07:20:19.895Z,21.2
2022-08-07T07:21:29.083Z,21.1
2022-08-07T07:22:38.250Z,21
2022-08-07T07:23:47.410Z,21.2
2022-08-07T07:24:56.593Z,21.3
2022-08-07T07:26:05.766Z,21
2022-08-07T07:27:14.923Z,21.1
2022-08-07T07:28:24.124Z,21.3
2022-08-07T07:29:33.277Z,21.5
2022-08-07T07:30:42.437Z,21.7
2022-08-07T07:31:50.639Z,21.8
2022-08-07T07:32:59.808Z,22
2022-08-07T07:34:08.967Z,21.7
2022-08-07T07:35:18.155Z,22
2022-08-07T07:36:27.328Z,21.9
2022-08-07T07:37:36.488Z,21.7
2022-08-07T07:38:45.673Z,22
2022-08-07T07:39:54.834Z,22.3
2022-08-07T07:41:04.007Z,22.7
2022-08-07T07:42:13.190Z,22.8
2022-08-07T07:43:22.363Z,23
2022-08-07T07:44:31.527Z,21.9
2022-08-07T07:45:40.698Z,21.4
2022-08-07T07:46:48.907Z,21.2
2022-08-07T07:47:58.070Z,21.3
2022-08-07T07:49:07.240Z,21.3
2022-08-07T07:50:16.412Z,21.4
2022-08-07T07:51:25.596Z,21.2
2022-08-07T07:52:34.789Z,21.6
2022-08-07T07:53:43.929Z,21.4
2022-08-07T07:54:53.088Z,21.1
2022-08-07T07:56:02.265Z,21.2
2022-08-07T07:57:11.443Z,21.3
2022-08-07T07:58:20.601Z,21.1
2022-08-07T07:59:29.775Z,21.3
2022-08-07T08:00:38.964Z,21
2022-08-07T08:01:47.143Z,21.1
2022-08-07T08:02:56.320Z,21.1
2022-08-07T08:04:05.544Z,21.1
2022-08-07T08:05:14.663Z,21.4
2022-08-07T08:06:23.861Z,22
2022-08-07T08:07:33.015Z,22.7
2022-08-07T08:08:42.169Z,22.6
2022-08-07T08:09:51.349Z,22.4
2022-08-07T08:11:00.551Z,22.6
2022-08-07T08:12:09.703Z,23
2022-08-07T08:13:18.867Z,23.3
2022-08-07T08:14:28.045Z,23.6
2022-08-07T08:15:37.230Z,23.4
2022-08-07T08:16:45.424Z,23.2
2022-08-07T08:17:54.588Z,22.9
2022-08-07T08:19:03.749Z,23
2022-08-07T08:20:12.915Z,23.5
2022-08-07T08:21:22.091Z,23.3
2022-08-07T08:22:31.262Z,23.2
2022-08-07T08:23:40.446Z,23.4
2022-08-07T08:24:49.614Z,22.7
2022-08-07T08:25:58.798Z,22.6
2022-08-07T08:27:07.954Z,23
2022-08-07T08:28:17.145Z,23.2
2022-08-07T08:29:26.312Z,23.5
2022-08-07T08:30:35.471Z,23.9
2022-08-07T08:31:43.676Z,23.9
2022-08-07T08:32:52.836Z,23.2
2022-08-07T08:34:02.024Z,22.7
2022-08-07T08:35:11.186Z,22.6
2022-08-07T08:36:20.354Z,22.5
2022-08-07T08:37:29.537Z,22.8
2022-08-07T08:38:38.718Z,22.6
2022-08-07T08:39:47.869Z,22.7
2022-08-07T08:40:57.078Z,22.9
2022-08-07T08:42:06.221Z,22.9
2022-08-07T08:43:15.388Z,22.7
2022-08-07T08:44:24.564Z,22.9
2022-08-07T08:45:33.735Z,22.7
2022-08-07T08:46:41.940Z,23.1
2022-08-07T08:47:51.101Z,23.2
2022-08-07T08:49:00.286Z,23.3
2022-08-07T08:50:09.462Z,23
2022-08-07T08:51:18.616Z,23
2022-08-07T08:52:27.790Z,23.1
2022-08-07T08:53:36.957Z,23.5
2022-08-07T08:54:46.171Z,23.5
2022-08-07T08:55:55.303Z,23.4
2022-08-07T08:57:04.497Z,23.6
2022-08-07T08:58:13.659Z,24
2022-08-07T08:59:22.832Z,24.3
2022-08-07T09:00:31.989Z,24.5
2022-08-07T09:01:41.164Z,24
2022-08-07T09:02:49.369Z,23.7
2022-08-07T09:03:58.549Z,23.5
2022-08-07T09:05:07.703Z,24
2022-08-07T09:06:16.895Z,24.4
2022-08-07T09:07:26.071Z,24.5
2022-08-07T09:08:35.215Z,25.1
2022-08-07T09:09:44.399Z,24.9
2022-08-07T09:10:53.592Z,24.4
2022-08-07T09:12:02.740Z,24.6
2022-08-07T09:13:11.938Z,24.7
2022-08-07T09:14:21.094Z,24.2
2022-08-07T09:15:30.258Z,24
2022-08-07T09:16:39.432Z,24
2022-08-07T09:17:47.613Z,24.2
2022-08-07T09:18:56.788Z,24.4
2022-08-07T09:20:05.964Z,23.9
2022-08-07T09:21:15.138Z,23.4
2022-08-07T09:22:24.302Z,23.1
2022-08-07T09:23:33.485Z,23.1
2022-08-07T09:24:42.688Z,23.2
2022-08-07T09:27:00.998Z,23.1
2022-08-07T09:28:10.182Z,23.7
2022-08-07T09:29:19.338Z,24.4
2022-08-07T09:30:28.515Z,24.6
2022-08-07T09:31:37.689Z,24.8
2022-08-07T09:32:45.889Z,25.1
2022-08-07T09:33:55.059Z,24.7
2022-08-07T09:35:04.222Z,24.9
2022-08-07T09:36:13.410Z,24.9
2022-08-07T09:37:22.582Z,25.1
2022-08-07T09:38:31.742Z,24.6
2022-08-07T09:39:40.906Z,24.9
2022-08-07T09:40:50.079Z,25.1
2022-08-07T09:41:59.267Z,25.2
2022-08-07T09:43:08.449Z,25
2022-08-07T09:44:17.613Z,24.6
2022-08-07T09:45:26.772Z,24.1
2022-08-07T09:46:35.944Z,23.7
2022-08-07T09:47:44.143Z,23.3
2022-08-07T09:48:53.315Z,24
2022-08-07T09:50:02.490Z,24.3
2022-08-07T09:51:11.662Z,25
2022-08-07T09:53:29.994Z,25.6
2022-08-07T09:54:39.164Z,24.6
2022-08-07T09:55:48.362Z,24.9
2022-08-07T09:56:57.518Z,24.8
2022-08-07T09:58:06.697Z,24.4
2022-08-07T09:59:15.853Z,24.8
2022-08-07T10:00:25.022Z,25
2022-08-07T10:01:34.201Z,24.4
2022-08-07T10:02:42.378Z,24.9
2022-08-07T10:03:51.561Z,25.5
2022-08-07T10:05:00.723Z,25.7
2022-08-07T10:06:09.933Z,25.4
2022-08-07T10:07:19.085Z,24.9
2022-08-07T10:08:28.258Z,24.8
2022-08-07T10:09:37.418Z,24.7
2022-08-07T10:10:46.600Z,24.9
2022-08-07T10:11:55.773Z,24.2
2022-08-07T10:13:04.940Z,24.4
2022-08-07T10:14:14.104Z,24.3
2022-08-07T10:15:23.280Z,25
2022-08-07T10:16:32.441Z,24.3
2022-08-07T10:17:40.653Z,23.8
2022-08-07T10:18:49.825Z,24.1
2022-08-07T10:19:58.984Z,24.4
2022-08-07T10:21:08.177Z,25.4
2022-08-07T10:22:17.335Z,26.3
2022-08-07T10:23:26.507Z,25.6
2022-08-07T10:24:35.677Z,25.8
2022-08-07T10:25:44.845Z,25.4
2022-08-07T10:26:54.048Z,25.1
2022-08-07T10:28:03.204Z,24.8
2022-08-07T10:29:12.362Z,24.4
2022-08-07T10:30:21.544Z,24.9
2022-08-07T10:31:30.734Z,24.7
2022-08-07T10:32:38.904Z,24.8
2022-08-07T10:33:48.070Z,25
2022-08-07T10:34:57.247Z,25.4
2022-08-07T10:36:06.413Z,25.3
2022-08-07T10:37:15.614Z,24.6
2022-08-07T10:38:24.759Z,25.2
2022-08-07T10:39:33.941Z,25
2022-08-07T10:40:43.120Z,25.7
2022-08-07T10:41:52.308Z,25.4
2022-08-07T10:43:01.491Z,25.2
2022-08-07T10:44:10.638Z,25
2022-08-07T10:45:19.819Z,24.4
2022-08-07T10:46:28.980Z,24.4
2022-08-07T10:47:37.176Z,24.1
2022-08-07T10:48:46.333Z,23.9
2022-08-07T10:49:55.534Z,24
2022-08-07T10:51:04.709Z,24.3
2022-08-07T10:52:13.879Z,24.3
2022-08-07T10:53:23.027Z,24.9
2022-08-07T10:54:32.192Z,25.7
2022-08-07T10:55:41.396Z,25.9
2022-08-07T10:56:50.545Z,26.4
2022-08-07T10:57:59.721Z,25.7
2022-08-07T10:59:08.935Z,25.6
2022-08-07T11:00:18.064Z,25.9
2022-08-07T11:01:27.234Z,25.3
2022-08-07T11:02:35.441Z,25.7
2022-08-07T11:03:44.611Z,25.7
2022-08-07T11:04:53.774Z,24.9
2022-08-07T11:06:02.943Z,25.5
2022-08-07T11:07:12.124Z,25.9
2022-08-07T11:08:21.295Z,26
2022-08-07T11:09:30.467Z,25.6
2022-08-07T11:11:48.809Z,26.1
2022-08-07T11:12:57.982Z,26.8
2022-08-07T11:14:07.151Z,26.8
2022-08-07T11:15:16.317Z,26.2
2022-08-07T11:16:25.507Z,25.4
2022-08-07T11:17:33.685Z,24.8
2022-08-07T11:18:42.849Z,24.9
2022-08-07T11:21:01.197Z,25.3
2022-08-07T11:22:10.400Z,25.6
2022-08-07T11:23:19.554Z,25.1
2022-08-07T11:24:28.727Z,25.1
2022-08-07T11:25:37.908Z,26
2022-08-07T11:26:47.084Z,26.6
2022-08-07T11:27:56.244Z,26.8
2022-08-07T11:29:05.412Z,26.9
2022-08-07T11:30:14.587Z,26.7
2022-08-07T11:31:23.760Z,27
2022-08-07T11:32:31.951Z,26.2
2022-08-07T11:33:41.130Z,26.1
2022-08-07T11:34:50.309Z,23.9
2022-08-07T11:35:59.461Z,23.2
2022-08-07T11:37:08.641Z,22.9
2022-08-07T11:38:17.835Z,22.9
2022-08-07T11:39:26.970Z,22.6
2022-08-07T11:40:36.148Z,22.5
2022-08-07T11:41:45.329Z,22.6
2022-08-07T11:42:54.512Z,22.7
2022-08-07T11:44:03.664Z,22.5
2022-08-07T11:45:12.864Z,23.1
2022-08-07T11:46:22.019Z,24
2022-08-07T11:47:30.220Z,24.3
2022-08-07T11:48:39.400Z,24.9
2022-08-07T11:49:48.539Z,25.3
2022-08-07T11:50:57.741Z,25
2022-08-07T11:52:06.907Z,24.9
2022-08-07T11:53:16.095Z,24.8
2022-08-07T11:54:25.242Z,25.2
2022-08-07T11:55:34.420Z,25
2022-08-07T11:56:43.601Z,25.8
2022-08-07T11:57:52.789Z,26
2022-08-07T11:59:01.948Z,26.1
2022-08-07T12:00:11.097Z,26.6
2022-08-07T12:01:20.294Z,26.9
2022-08-07T12:02:28.468Z,27.1
2022-08-07T12:03:37.628Z,26.6
2022-08-07T12:04:46.831Z,25.1
2022-08-07T12:05:55.993Z,24.8
2022-08-07T12:07:05.155Z,24.9
2022-08-07T12:08:14.325Z,25.1
2022-08-07T12:09:23.493Z,25.2
2022-08-07T12:10:32.672Z,25.2
2022-08-07T12:11:41.846Z,25.2
2022-08-07T12:12:51.051Z,25.7
2022-08-07T12:14:00.201Z,26.5
2022-08-07T12:15:09.378Z,26.8
2022-08-07T12:16:18.537Z,27.7
2022-08-07T12:17:26.730Z,27.2
2022-08-07T12:18:35.908Z,25.4
2022-08-07T12:19:45.096Z,25.3
2022-08-07T12:20:54.227Z,25.4
2022-08-07T12:22:03.420Z,25.6
2022-08-07T12:23:11.600Z,24.9
2022-08-07T12:24:20.766Z,25
2022-08-07T12:25:29.959Z,24.6
2022-08-07T12:26:39.115Z,25.1
2022-08-07T12:27:48.288Z,25.5
2022-08-07T12:28:57.472Z,25.9
2022-08-07T12:30:06.637Z,25.9
2022-08-07T12:31:15.802Z,25.7
2022-08-07T12:32:24.981Z,26.4
2022-08-07T12:33:34.163Z,26.4
2022-08-07T12:34:43.352Z,25.8
2022-08-07T12:35:52.494Z,25.9
2022-08-07T12:37:01.673Z,25.7
2022-08-07T12:38:09.867Z,25.6
2022-08-07T12:39:19.028Z,25.7
2022-08-07T12:40:28.214Z,25.6
2022-08-07T12:41:37.386Z,25.6
2022-08-07T12:42:46.569Z,25.6
2022-08-07T12:43:55.738Z,25.6
2022-08-07T12:45:04.908Z,25.5
2022-08-07T12:46:14.077Z,26.1
2022-08-07T12:47:23.260Z,26.5
2022-08-07T12:48:32.426Z,25.8
2022-08-07T12:49:41.591Z,25.8
2022-08-07T12:50:50.773Z,25.5
2022-08-07T12:51:59.940Z,25.7
2022-08-07T12:53:08.146Z,25.9
2022-08-07T12:54:17.286Z,26
2022-08-07T12:55:26.459Z,25.5
2022-08-07T12:56:35.648Z,25.6
2022-08-07T12:57:44.823Z,25.1
2022-08-07T12:58:54.004Z,25
2022-08-07T13:00:03.149Z,26.2
2022-08-07T13:01:12.322Z,27
2022-08-07T13:03:30.677Z,26.7
2022-08-07T13:04:39.851Z,27
2022-08-07T13:05:49.015Z,26
2022-08-07T13:06:58.181Z,25.9
2022-08-07T13:09:15.552Z,26.8
2022-08-07T13:10:24.722Z,27.1
2022-08-07T13:11:33.903Z,26.8
2022-08-07T13:12:43.066Z,27.7
2022-08-07T13:13:52.266Z,27.3
2022-08-07T13:15:01.425Z,26.6
2022-08-07T13:16:10.581Z,26
2022-08-07T13:17:19.770Z,27
2022-08-07T13:18:28.936Z,26.3
2022-08-07T13:19:38.106Z,25.9
2022-08-07T13:20:47.306Z,25.7
2022-08-07T13:21:56.451Z,25.9
2022-08-07T13:23:04.639Z,26.7
2022-08-07T13:24:13.832Z,26.5
2022-08-07T13:25:22.983Z,26.4
2022-08-07T13:26:32.160Z,26.7
2022-08-07T13:27:41.335Z,27.6
2022-08-07T13:28:50.516Z,27.7
2022-08-07T13:29:59.704Z,27.2
2022-08-07T13:31:08.844Z,27.2
2022-08-07T13:32:18.024Z,25.8
2022-08-07T13:33:27.196Z,25.5
2022-08-07T13:34:36.367Z,25.3
2022-08-07T13:35:45.541Z,25.7
2022-08-07T13:36:54.725Z,25.6
2022-08-07T13:38:02.922Z,25.3
2022-08-07T13:39:12.078Z,25.6
2022-08-07T13:40:21.261Z,25.8
2022-08-07T13:41:30.429Z,27.1
2022-08-07T13:42:39.608Z,27.7
2022-08-07T13:43:48.752Z,28
2022-08-07T13:44:57.944Z,28.2
2022-08-07T13:46:07.110Z,28.3
2022-08-07T13:47:16.295Z,27.9
2022-08-07T13:48:25.450Z,27.5
2022-08-07T13:49:34.625Z,27.9
2022-08-07T13:50:43.816Z,27.3
2022-08-07T13:51:52.971Z,26.6
2022-08-07T13:53:01.183Z,27
2022-08-07T13:54:10.327Z,26.6
2022-08-07T13:55:19.527Z,25.9
2022-08-07T13:56:28.681Z,26.6
2022-08-07T13:57:37.859Z,27.3
2022-08-07T13:58:47.019Z,27.6
2022-08-07T13:59:56.194Z,28.6
2022-08-07T14:01:05.369Z,28.8
2022-08-07T14:02:14.559Z,28.5
2022-08-07T14:03:23.710Z,27.8
2022-08-07T14:04:32.894Z,27.4
2022-08-07T14:05:42.062Z,26.9
2022-08-07T14:06:51.234Z,27.1
2022-08-07T14:07:59.412Z,27.8
2022-08-07T14:09:08.615Z,28.3
2022-08-07T14:10:17.764Z,28.2
2022-08-07T14:11:26.950Z,29
2022-08-07T14:12:36.128Z,28.5
2022-08-07T14:13:45.297Z,28.2
2022-08-07T14:14:54.449Z,28.8
2022-08-07T14:16:03.651Z,29.3
2022-08-07T14:17:12.812Z,29.4
2022-08-07T14:18:21.977Z,28.2
2022-08-07T14:19:31.143Z,27.9
2022-08-07T14:20:40.326Z,28
2022-08-07T14:21:49.498Z,27.3
2022-08-07T14:22:57.714Z,27.3
2022-08-07T14:24:06.860Z,27.9
2022-08-07T14:25:16.048Z,27.8
2022-08-07T14:26:25.203Z,27.8
2022-08-07T14:27:34.374Z,28
2022-08-07T14:28:43.552Z,28.1
2022-08-07T14:29:52.730Z,28.3
2022-08-07T14:31:01.931Z,28.7
2022-08-07T14:32:10.087Z,28.2
2022-08-07T14:33:18.284Z,28.2
2022-08-07T14:34:27.448Z,28
2022-08-07T14:35:36.629Z,27.1
2022-08-07T14:36:45.791Z,27.5
2022-08-07T14:37:54.967Z,27.1
2022-08-07T14:39:04.159Z,26.7
2022-08-07T14:40:13.309Z,26.9
2022-08-07T14:41:22.486Z,27.3
2022-08-07T14:42:31.662Z,27.5
2022-08-07T14:43:39.874Z,27.2
2022-08-07T14:44:48.059Z,26.7
2022-08-07T14:45:57.229Z,27.4
2022-08-07T14:47:06.397Z,28.2
2022-08-07T14:48:15.563Z,28.4
2022-08-07T14:49:24.730Z,27.7
2022-08-07T14:50:33.938Z,27.8
2022-08-07T14:51:43.086Z,28.2
2022-08-07T14:52:52.270Z,28.2
2022-08-07T14:54:01.427Z,28.2
2022-08-07T14:55:10.597Z,27.5
2022-08-07T14:56:19.766Z,27.9
2022-08-07T14:57:28.939Z,28.5
2022-08-07T14:58:38.121Z,28.5
2022-08-07T14:59:46.302Z,28.2
2022-08-07T15:00:55.489Z,28.8
2022-08-07T15:02:04.666Z,28.7
2022-08-07T15:03:13.825Z,27.8
2022-08-07T15:04:22.998Z,27.1
2022-08-07T15:05:32.182Z,27.5
2022-08-07T15:06:41.372Z,27.7
2022-08-07T15:07:50.530Z,27.9
2022-08-07T15:08:59.701Z,27.2
2022-08-07T15:10:08.872Z,26.5
2022-08-07T15:11:18.054Z,26.7
2022-08-07T15:12:27.221Z,27.4
2022-08-07T15:13:36.394Z,28.5
2022-08-07T15:14:44.574Z,27.5
2022-08-07T15:15:53.763Z,26.9
2022-08-07T15:17:02.920Z,26.6
2022-08-07T15:18:12.096Z,26.3
2022-08-07T15:19:21.283Z,26.4
2022-08-07T15:20:30.439Z,26.4
2022-08-07T15:21:39.631Z,26.8
2022-08-07T15:22:48.780Z,27.1
2022-08-07T15:23:57.951Z,27.1
2022-08-07T15:25:07.132Z,27.5
2022-08-07T15:26:16.299Z,26.9
2022-08-07T15:28:34.649Z,25.5
2022-08-07T15:29:42.841Z,25.7
2022-08-07T15:30:52.043Z,26
2022-08-07T15:32:01.181Z,25.9
2022-08-07T15:33:10.355Z,25.8
2022-08-07T15:34:19.548Z,26.2